createdAt,value
2023-12-26T00:01:25.416Z,99204.11
2023-12-26T00:03:53.793Z,99209.27
2023-12-26T00:06:23.650Z,99215.27
2023-12-26T00:08:52.032Z,99216.31
2023-12-26T00:11:34.147Z,99222.84
2023-12-26T00:14:02.541Z,99223.17
2023-12-26T00:16:30.700Z,99222.30
2023-12-26T00:18:58.929Z,99224.72
2023-12-26T00:21:27.257Z,99228.66
2023-12-26T00:23:55.678Z,99235.19
2023-12-26T00:26:23.994Z,99240.35
2023-12-26T00:28:54.883Z,99241.89
2023-12-26T00:31:23.188Z,99248.24
2023-12-26T00:33:51.483Z,99252.71
2023-12-26T00:36:19.786Z,99252.54
2023-12-26T00:38:48.947Z,99252.20
2023-12-26T00:41:17.604Z,99261.30
2023-12-26T00:43:45.925Z,99261.81
2023-12-26T00:46:15.326Z,99271.59
2023-12-26T00:48:43.746Z,99268.84
2023-12-26T00:51:12.135Z,99269.35
2023-12-26T00:53:40.390Z,99265.05
2023-12-26T00:56:09.174Z,99263.85
2023-12-26T00:58:37.463Z,99263.84
2023-12-26T01:01:06.263Z,99261.77
2023-12-26T01:03:34.708Z,99263.48
2023-12-26T01:06:03.456Z,99259.71
2023-12-26T01:08:31.745Z,99264.00
2023-12-26T01:10:59.859Z,99262.11
2023-12-26T01:13:35.496Z,99260.39
2023-12-26T01:16:05.334Z,99258.14
2023-12-26T01:18:33.816Z,99257.62
2023-12-26T01:21:02.379Z,99259.67
2023-12-26T01:23:30.720Z,99257.79
2023-12-26T01:25:59.141Z,99256.73
2023-12-26T01:28:27.799Z,99262.23
2023-12-26T01:30:56.131Z,99260.64
2023-12-26T01:33:24.422Z,99254.63
2023-12-26T01:35:53.595Z,99260.48
2023-12-26T01:38:21.765Z,99252.08
2023-12-26T01:40:49.934Z,99245.21
2023-12-26T01:43:19.196Z,99246.95
2023-12-26T01:45:47.657Z,99241.98
2023-12-26T01:48:16.357Z,99245.95
2023-12-26T01:50:44.948Z,99244.76
2023-12-26T01:53:13.514Z,99250.27
2023-12-26T01:55:42.385Z,99255.79
2023-12-26T01:58:11.104Z,99252.88
2023-12-26T02:00:40.839Z,99248.92
2023-12-26T02:03:09.948Z,99241.73
2023-12-26T02:05:39.931Z,99237.78
2023-12-26T02:08:17.991Z,99237.44
2023-12-26T02:10:47.573Z,99235.72
2023-12-26T02:13:16.027Z,99230.91
2023-12-26T02:15:44.453Z,99227.64
2023-12-26T02:18:13.150Z,99226.79
2023-12-26T02:20:41.488Z,99229.20
2023-12-26T02:23:09.695Z,99221.64
2023-12-26T02:25:38.185Z,99214.08
2023-12-26T02:28:08.270Z,99219.92
2023-12-26T02:30:38.319Z,99226.63
2023-12-26T02:36:03.084Z,99216.65
2023-12-26T02:38:31.394Z,99221.81
2023-12-26T02:40:59.806Z,99216.84
2023-12-26T02:43:28.298Z,99219.91
2023-12-26T02:45:56.750Z,99221.64
2023-12-26T02:48:25.104Z,99222.67
2023-12-26T02:50:54.588Z,99226.45
2023-12-26T02:53:23.277Z,99223.88
2023-12-26T02:55:55.178Z,99219.59
2023-12-26T02:58:23.495Z,99215.44
2023-12-26T03:00:51.824Z,99219.75
2023-12-26T03:03:20.910Z,99212.02
2023-12-26T03:05:49.954Z,99203.77
2023-12-26T03:08:19.122Z,99200.67
2023-12-26T03:10:47.716Z,99200.16
2023-12-26T03:13:16.020Z,99196.19
2023-12-26T03:15:44.263Z,99195.34
2023-12-26T03:18:12.698Z,99187.77
2023-12-26T03:20:41.121Z,99177.98
2023-12-26T03:23:09.305Z,99173.17
2023-12-26T03:25:37.487Z,99167.15
2023-12-26T03:28:06.199Z,99165.94
2023-12-26T03:30:34.708Z,99161.31
2023-12-26T03:33:03.142Z,99156.84
2023-12-26T03:35:31.705Z,99167.67
2023-12-26T03:37:59.987Z,99157.19
2023-12-26T03:40:28.434Z,99147.05
2023-12-26T03:42:57.489Z,99153.58
2023-12-26T03:45:28.086Z,99146.54
2023-12-26T03:47:56.796Z,99146.52
2023-12-26T03:50:25.362Z,99142.07
2023-12-26T03:52:53.839Z,99132.77
2023-12-26T03:55:23.211Z,99135.17
2023-12-26T03:57:51.635Z,99137.24
2023-12-26T04:05:06.088Z,99125.20
2023-12-26T04:07:34.571Z,99121.77
2023-12-26T04:10:03.637Z,99117.83
2023-12-26T04:12:33.060Z,99112.84
2023-12-26T04:15:01.376Z,99108.55
2023-12-26T04:17:30.380Z,99106.83
2023-12-26T04:19:58.550Z,99095.15
2023-12-26T04:22:26.741Z,99098.58
2023-12-26T04:24:54.951Z,99102.02
2023-12-26T04:27:23.642Z,99096.02
2023-12-26T04:29:52.959Z,99101.52
2023-12-26T04:34:40.995Z,99089.64
2023-12-26T04:37:09.449Z,99088.27
2023-12-26T04:39:38.580Z,99081.58
2023-12-26T04:42:06.688Z,99083.46
2023-12-26T04:44:34.723Z,99079.51
2023-12-26T04:47:02.922Z,99074.85
2023-12-26T04:49:32.567Z,99072.09
2023-12-26T04:52:00.555Z,99067.45
2023-12-26T04:54:29.029Z,99066.41
2023-12-26T04:56:57.098Z,99058.50
2023-12-26T04:59:25.405Z,99059.85
2023-12-26T05:01:53.926Z,99055.36
2023-12-26T05:04:22.032Z,99050.69
2023-12-26T05:06:50.053Z,99052.89
2023-12-26T05:09:18.259Z,99049.80
2023-12-26T05:11:46.563Z,99041.70
2023-12-26T05:14:21.869Z,99036.84
2023-12-26T05:16:52.259Z,99025.14
2023-12-26T05:19:20.719Z,99020.80
2023-12-26T05:21:49.472Z,99018.89
2023-12-26T05:24:19.369Z,99013.01
2023-12-26T05:26:47.390Z,99008.16
2023-12-26T05:29:15.401Z,99004.00
2023-12-26T05:31:43.484Z,98999.17
2023-12-26T05:34:12.779Z,98992.25
2023-12-26T05:36:41.328Z,98988.95
2023-12-26T05:39:11.456Z,98988.95
2023-12-26T05:41:42.189Z,98988.26
2023-12-26T05:44:10.708Z,98984.62
2023-12-26T05:46:38.800Z,98986.16
2023-12-26T05:49:07.549Z,98986.98
2023-12-26T05:51:36.655Z,98979.23
2023-12-26T05:54:04.898Z,98977.64
2023-12-26T05:56:33.273Z,98974.20
2023-12-26T05:59:01.772Z,98972.63
2023-12-26T06:01:30.385Z,98967.43
2023-12-26T06:03:58.698Z,98966.71
2023-12-26T06:06:26.842Z,98957.74
2023-12-26T06:08:55.013Z,98955.48
2023-12-26T06:11:24.457Z,98951.17
2023-12-26T06:13:52.457Z,98941.85
2023-12-26T06:16:20.552Z,98942.17
2023-12-26T06:18:48.741Z,98937.16
2023-12-26T06:21:16.822Z,98927.31
2023-12-26T06:23:44.825Z,98924.73
2023-12-26T06:26:13.347Z,98922.46
2023-12-26T06:28:41.333Z,98918.27
2023-12-26T06:31:15.309Z,98919.98
2023-12-26T06:33:43.830Z,98918.60
2023-12-26T06:36:12.702Z,98910.48
2023-12-26T06:38:40.835Z,98906.33
2023-12-26T06:41:11.062Z,98898.71
2023-12-26T06:43:39.443Z,98897.67
2023-12-26T06:46:07.722Z,98891.61
2023-12-26T06:48:38.791Z,98887.63
2023-12-26T06:51:06.957Z,98887.11
2023-12-26T06:53:35.306Z,98883.98
2023-12-26T06:56:06.030Z,98878.97
2023-12-26T06:58:34.128Z,98876.34
2023-12-26T07:01:03.247Z,98871.16
2023-12-26T07:03:31.895Z,98866.67
2023-12-26T07:06:00.157Z,98862.84
2023-12-26T07:08:28.732Z,98867.46
2023-12-26T07:10:56.752Z,98856.60
2023-12-26T07:13:25.571Z,98855.36
2023-12-26T07:15:53.917Z,98853.76
2023-12-26T07:18:22.676Z,98855.14
2023-12-26T07:20:51.109Z,98850.98
2023-12-26T07:23:19.125Z,98847.81
2023-12-26T07:25:47.141Z,98850.88
2023-12-26T07:28:18.496Z,98845.14
2023-12-26T07:30:46.719Z,98841.29
2023-12-26T07:33:15.050Z,98840.53
2023-12-26T07:35:43.370Z,98835.64
2023-12-26T07:38:11.470Z,98834.70
2023-12-26T07:40:41.083Z,98837.42
2023-12-26T07:43:11.379Z,98827.57
2023-12-26T07:45:39.361Z,98825.11
2023-12-26T07:48:07.832Z,98825.52
2023-12-26T07:50:36.064Z,98824.05
2023-12-26T07:53:05.486Z,98820.85
2023-12-26T07:55:33.652Z,98817.80
2023-12-26T07:58:01.717Z,98819.97
2023-12-26T08:00:29.756Z,98813.00
2023-12-26T08:02:58.502Z,98813.41
2023-12-26T08:05:27.161Z,98818.14
2023-12-26T08:07:55.273Z,98813.57
2023-12-26T08:10:26.575Z,98812.93
2023-12-26T08:12:54.615Z,98811.44
2023-12-26T08:15:23.189Z,98813.57
2023-12-26T08:17:52.671Z,98811.33
2023-12-26T08:20:20.802Z,98816.10
2023-12-26T08:22:48.728Z,98815.45
2023-12-26T08:25:19.389Z,98814.86
2023-12-26T08:27:48.347Z,98812.73
2023-12-26T08:30:17.445Z,98817.30
2023-12-26T08:32:46.029Z,98815.86
2023-12-26T08:35:14.256Z,98815.27
2023-12-26T08:37:42.338Z,98812.80
2023-12-26T08:40:10.455Z,98817.19
2023-12-26T08:42:38.596Z,98811.56
2023-12-26T08:45:06.951Z,98806.65
2023-12-26T08:47:35.806Z,98807.45
2023-12-26T08:50:04.208Z,98805.66
2023-12-26T08:52:32.250Z,98801.08
2023-12-26T08:55:00.208Z,98795.95
2023-12-26T08:57:28.688Z,98804.40
2023-12-26T08:59:56.881Z,98807.84
2023-12-26T09:02:24.986Z,98808.96
2023-12-26T09:04:52.980Z,98809.61
2023-12-26T09:07:21.123Z,98809.59
2023-12-26T09:09:49.874Z,98809.52
2023-12-26T09:12:23.688Z,98814.30
2023-12-26T09:14:54.608Z,98803.21
2023-12-26T09:17:23.565Z,98798.64
2023-12-26T09:19:52.294Z,98805.28
2023-12-26T09:22:20.247Z,98808.14
2023-12-26T09:24:48.322Z,98812.05
2023-12-26T09:27:16.614Z,98809.77
2023-12-26T09:29:44.808Z,98811.10
2023-12-26T09:32:12.919Z,98816.45
2023-12-26T09:34:41.245Z,98817.81
2023-12-26T09:37:09.327Z,98824.19
2023-12-26T09:39:37.681Z,98823.64
2023-12-26T09:42:09.207Z,98820.66
2023-12-26T09:44:37.677Z,98817.67
2023-12-26T09:47:07.233Z,98818.96
2023-12-26T09:49:35.622Z,98824.63
2023-12-26T09:52:08.076Z,98823.05
2023-12-26T09:54:36.379Z,98829.64
2023-12-26T09:57:04.900Z,98834.98
2023-12-26T09:59:36.058Z,98826.29
2023-12-26T10:02:09.125Z,98824.88
2023-12-26T10:04:37.118Z,98829.84
2023-12-26T10:07:05.354Z,98829.85
2023-12-26T10:09:33.608Z,98831.90
2023-12-26T10:12:01.687Z,98831.05
2023-12-26T10:14:31.120Z,98833.65
2023-12-26T10:16:59.903Z,98848.00
2023-12-26T10:19:28.327Z,98852.50
2023-12-26T10:21:56.624Z,98854.73
2023-12-26T10:24:24.747Z,98863.06
2023-12-26T10:26:53.080Z,98869.98
2023-12-26T10:29:21.246Z,98870.86
2023-12-26T10:31:49.470Z,98874.36
2023-12-26T10:34:21.144Z,98875.41
2023-12-26T10:36:51.228Z,98874.20
2023-12-26T10:39:19.794Z,98882.19
2023-12-26T10:41:49.214Z,98876.99
2023-12-26T10:44:18.805Z,98880.05
2023-12-26T10:46:48.852Z,98889.19
2023-12-26T10:49:26.815Z,98890.52
2023-12-26T10:51:59.309Z,98893.73
2023-12-26T10:54:28.303Z,98893.29
2023-12-26T10:56:59.267Z,98897.41
2023-12-26T11:05:34.058Z,98888.80
2023-12-26T11:09:17.790Z,98887.95
2023-12-26T11:13:06.999Z,98891.91
2023-12-26T11:16:50.272Z,98893.55
2023-12-26T11:20:14.898Z,98895.52
2023-12-26T11:23:58.218Z,98899.64
2023-12-26T11:27:22.557Z,98897.95
2023-12-26T11:31:05.660Z,98915.33
2023-12-26T11:34:49.034Z,98927.54
2023-12-26T11:38:13.194Z,98931.77
2023-12-26T11:41:56.102Z,98935.94
2023-12-26T11:45:39.261Z,98937.41
2023-12-26T11:49:22.208Z,98940.00
2023-12-26T11:52:46.204Z,98946.67
2023-12-26T11:56:29.316Z,98955.88
2023-12-26T12:00:12.172Z,98957.58
2023-12-26T12:03:55.915Z,98968.97
2023-12-26T12:07:38.902Z,98957.71
2023-12-26T12:11:21.973Z,98967.23
2023-12-26T12:15:05.012Z,98982.63
2023-12-26T12:18:47.862Z,98979.98
2023-12-26T12:22:31.124Z,98968.91
2023-12-26T12:26:13.679Z,98969.75
2023-12-26T12:29:56.280Z,98971.70
2023-12-26T12:33:39.337Z,98983.51
2023-12-26T12:37:22.573Z,98990.05
2023-12-26T12:41:05.058Z,98991.62
2023-12-26T12:44:29.497Z,98995.42
2023-12-26T12:48:12.575Z,99005.52
2023-12-26T12:51:36.951Z,99000.27
2023-12-26T12:55:20.560Z,99014.35
2023-12-26T12:58:44.532Z,99026.88
2023-12-26T13:02:27.754Z,99029.42
2023-12-26T13:05:52.042Z,99032.15
2023-12-26T13:09:35.544Z,99036.30
2023-12-26T13:13:17.869Z,99045.65
2023-12-26T13:17:00.661Z,99047.71
2023-12-26T13:20:43.454Z,99052.64
2023-12-26T13:24:26.259Z,99058.08
2023-12-26T13:28:09.830Z,99066.66
2023-12-26T13:31:53.254Z,99062.94
2023-12-26T13:35:36.968Z,99059.88
2023-12-26T13:39:20.547Z,99068.19
2023-12-26T13:43:03.294Z,99075.75
2023-12-26T13:46:45.985Z,99075.09
2023-12-26T13:50:28.924Z,99081.67
2023-12-26T13:53:15.661Z,99082.39
2023-12-26T13:56:21.397Z,99085.88
2023-12-26T13:58:49.737Z,99087.48
2023-12-26T14:01:55.516Z,99096.32
2023-12-26T14:05:01.206Z,99102.70
2023-12-26T14:07:29.603Z,99109.91
2023-12-26T14:10:34.999Z,99121.63
2023-12-26T14:13:03.006Z,99136.16
2023-12-26T14:15:30.996Z,99135.25
2023-12-26T14:17:59.210Z,99131.45
2023-12-26T14:21:04.702Z,99135.83
2023-12-26T14:23:35.768Z,99145.52
2023-12-26T14:26:41.981Z,99153.92
2023-12-26T14:29:10.051Z,99157.63
2023-12-26T14:31:38.125Z,99169.29
2023-12-26T14:34:44.175Z,99168.02
2023-12-26T14:37:13.690Z,99183.80
2023-12-26T14:40:19.327Z,99182.33
2023-12-26T14:42:47.538Z,99191.14
2023-12-26T14:45:53.301Z,99190.30
2023-12-26T14:48:21.690Z,99192.79
2023-12-26T14:51:27.583Z,99205.26
2023-12-26T14:53:55.777Z,99207.73
2023-12-26T14:57:01.693Z,99211.89
2023-12-26T14:59:29.881Z,99210.23
2023-12-26T15:02:02.865Z,99211.33
2023-12-26T15:04:31.260Z,99212.22
2023-12-26T15:07:02.407Z,99216.57
2023-12-26T15:09:30.773Z,99221.75
2023-12-26T15:11:58.876Z,99222.98
2023-12-26T15:14:41.250Z,99226.62
2023-12-26T15:17:12.193Z,99227.63
2023-12-26T15:19:41.564Z,99226.41
2023-12-26T15:22:10.640Z,99229.49
2023-12-26T15:24:38.853Z,99236.70
2023-12-26T15:27:07.491Z,99238.54
2023-12-26T15:29:35.956Z,99256.40
2023-12-26T15:32:05.146Z,99258.43
2023-12-26T15:34:33.506Z,99265.31
2023-12-26T15:37:01.701Z,99264.61
2023-12-26T15:39:29.877Z,99274.98
2023-12-26T15:41:58.031Z,99276.35
2023-12-26T15:44:26.034Z,99278.08
2023-12-26T15:46:54.142Z,99279.80
2023-12-26T15:49:22.548Z,99284.48
2023-12-26T15:51:50.811Z,99290.52
2023-12-26T15:54:19.201Z,99287.47
2023-12-26T15:56:47.486Z,99295.08
2023-12-26T15:59:15.630Z,99295.62
2023-12-26T16:01:49.866Z,99301.66
2023-12-26T16:04:18.762Z,99305.47
2023-12-26T16:06:47.314Z,99313.55
2023-12-26T16:09:16.077Z,99310.63
2023-12-26T16:11:44.994Z,99309.95
2023-12-26T16:14:13.165Z,99307.02
2023-12-26T16:16:42.317Z,99312.02
2023-12-26T16:19:10.998Z,99312.90
2023-12-26T16:21:41.373Z,99307.39
2023-12-26T16:24:12.024Z,99314.98
2023-12-26T16:26:47.732Z,99310.19
2023-12-26T16:29:19.904Z,99315.02
2023-12-26T16:31:48.365Z,99317.27
2023-12-26T16:34:16.848Z,99324.70
2023-12-26T16:36:48.663Z,99331.77
2023-12-26T16:39:16.881Z,99324.71
2023-12-26T16:42:09.623Z,99331.60
2023-12-26T16:44:47.078Z,99336.40
2023-12-26T16:47:17.000Z,99337.27
2023-12-26T16:49:45.262Z,99335.72
2023-12-26T16:52:13.331Z,99334.52
2023-12-26T16:54:41.739Z,99335.89
2023-12-26T16:57:09.907Z,99335.21
2023-12-26T16:59:39.559Z,99332.10
2023-12-26T17:02:08.487Z,99338.98
2023-12-26T17:04:36.787Z,99339.14
2023-12-26T17:07:05.548Z,99339.29
2023-12-26T17:09:33.543Z,99342.92
2023-12-26T17:12:01.730Z,99348.94
2023-12-26T17:14:29.869Z,99340.81
2023-12-26T17:16:58.010Z,99351.64
2023-12-26T17:19:26.625Z,99352.81
2023-12-26T17:21:55.062Z,99355.37
2023-12-26T17:24:24.090Z,99356.73
2023-12-26T17:27:05.621Z,99355.86
2023-12-26T17:29:33.838Z,99357.75
2023-12-26T17:32:02.130Z,99357.41
2023-12-26T17:34:30.480Z,99357.92
2023-12-26T17:36:58.734Z,99367.77
2023-12-26T17:39:27.118Z,99370.02
2023-12-26T17:41:55.339Z,99372.96
2023-12-26T17:44:23.429Z,99370.91
2023-12-26T17:46:51.706Z,99374.70
2023-12-26T17:49:20.017Z,99372.30
2023-12-26T17:51:48.209Z,99368.67
2023-12-26T17:54:16.518Z,99374.36
2023-12-26T17:56:44.522Z,99382.98
2023-12-26T17:59:12.612Z,99374.37
2023-12-26T18:01:40.934Z,99375.23
2023-12-26T18:04:10.660Z,99377.12
2023-12-26T18:06:39.040Z,99382.80
2023-12-26T18:09:07.337Z,99385.72
2023-12-26T18:11:35.563Z,99382.80
2023-12-26T18:14:03.778Z,99391.58
2023-12-26T18:16:31.916Z,99400.02
2023-12-26T18:19:00.047Z,99399.16
2023-12-26T18:21:33.153Z,99403.64
2023-12-26T18:24:01.649Z,99404.49
2023-12-26T18:26:29.730Z,99406.91
2023-12-26T18:28:57.871Z,99402.08
2023-12-26T18:31:26.526Z,99414.48
2023-12-26T18:33:54.912Z,99417.74
2023-12-26T18:36:23.359Z,99414.46
2023-12-26T18:38:51.735Z,99420.16
2023-12-26T18:41:20.050Z,99425.34
2023-12-26T18:43:48.147Z,99424.83
2023-12-26T18:46:16.180Z,99427.94
2023-12-26T18:48:46.196Z,99429.31
2023-12-26T18:51:23.609Z,99433.09
2023-12-26T18:53:52.383Z,99427.74
2023-12-26T18:56:20.486Z,99427.21
2023-12-26T18:58:48.536Z,99430.48
2023-12-26T19:04:38.120Z,99431.17
2023-12-26T19:07:06.234Z,99426.86
2023-12-26T19:09:35.834Z,99427.73
2023-12-26T19:12:06.588Z,99424.96
2023-12-26T19:14:35.115Z,99426.52
2023-12-26T19:17:04.016Z,99419.45
2023-12-26T19:19:32.336Z,99420.33
2023-12-26T19:22:00.499Z,99421.34
2023-12-26T19:24:28.687Z,99428.59
2023-12-26T19:26:58.473Z,99430.67
2023-12-26T19:29:26.956Z,99425.69
2023-12-26T19:31:55.110Z,99431.20
2023-12-26T19:34:23.296Z,99431.73
2023-12-26T19:36:51.507Z,99435.36
2023-12-26T19:39:19.573Z,99437.61
2023-12-26T19:41:47.635Z,99436.23
2023-12-26T19:44:18.242Z,99433.32
2023-12-26T19:46:46.354Z,99440.05
2023-12-26T19:49:14.523Z,99447.45
2023-12-26T19:51:42.997Z,99446.24
2023-12-26T19:54:11.261Z,99447.09
2023-12-26T19:56:42.850Z,99450.19
2023-12-26T19:59:11.199Z,99448.63
2023-12-26T20:01:43.112Z,99444.15
2023-12-26T20:04:11.309Z,99452.08
2023-12-26T20:06:46.153Z,99461.02
2023-12-26T20:09:20.177Z,99469.28
2023-12-26T20:11:48.465Z,99468.77
2023-12-26T20:14:18.700Z,99473.59
2023-12-26T20:16:50.785Z,99477.71
2023-12-26T20:19:20.495Z,99479.44
2023-12-26T20:21:48.957Z,99487.18
2023-12-26T20:24:17.620Z,99491.17
2023-12-26T20:26:52.446Z,99487.56
2023-12-26T20:29:22.799Z,99489.98
2023-12-26T20:31:55.784Z,99494.29
2023-12-26T20:34:24.276Z,99484.64
2023-12-26T20:36:53.829Z,99493.41
2023-12-26T20:39:22.268Z,99486.52
2023-12-26T20:41:52.637Z,99485.83
2023-12-26T20:44:21.011Z,99492.20
2023-12-26T20:46:49.603Z,99496.85
2023-12-26T20:49:19.778Z,99500.11
2023-12-26T20:51:48.380Z,99505.29
2023-12-26T20:54:17.577Z,99503.40
2023-12-26T20:56:47.268Z,99507.86
2023-12-26T20:59:15.361Z,99509.41
2023-12-26T21:01:44.746Z,99508.73
2023-12-26T21:04:14.179Z,99509.59
2023-12-26T21:06:42.369Z,99513.55
2023-12-26T21:09:14.154Z,99520.60
2023-12-26T21:11:42.464Z,99520.61
2023-12-26T21:14:17.858Z,99526.11
2023-12-26T21:16:46.004Z,99526.11
2023-12-26T21:19:14.364Z,99529.05
2023-12-26T21:21:42.995Z,99528.54
2023-12-26T21:24:11.097Z,99529.38
2023-12-26T21:26:39.235Z,99530.77
2023-12-26T21:29:07.294Z,99520.42
2023-12-26T21:31:35.436Z,99531.80
2023-12-26T21:34:03.861Z,99533.67
2023-12-26T21:36:32.665Z,99538.85
2023-12-26T21:39:01.466Z,99538.86
2023-12-26T21:41:29.512Z,99538.17
2023-12-26T21:43:57.478Z,99547.64
2023-12-26T21:46:25.840Z,99546.45
2023-12-26T21:48:54.129Z,99546.79
2023-12-26T21:51:22.639Z,99554.35
2023-12-26T21:53:50.780Z,99555.73
2023-12-26T21:56:19.266Z,99563.33
2023-12-26T21:58:47.544Z,99557.30
2023-12-26T22:01:22.488Z,99566.77
2023-12-26T22:03:50.820Z,99569.00
2023-12-26T22:06:18.975Z,99566.07
2023-12-26T22:08:48.421Z,99572.45
2023-12-26T22:11:17.286Z,99574.17
2023-12-26T22:13:50.458Z,99575.55
2023-12-26T22:16:22.566Z,99576.58
2023-12-26T22:18:54.412Z,99582.61
2023-12-26T22:21:23.946Z,99582.95
2023-12-26T22:23:55.613Z,99583.13
2023-12-26T22:26:24.623Z,99586.91
2023-12-26T22:28:52.638Z,99603.63
2023-12-26T22:31:22.127Z,99602.41
2023-12-26T22:33:52.829Z,99622.40
2023-12-26T22:36:22.338Z,99613.44
2023-12-26T22:38:50.517Z,99620.52
2023-12-26T22:41:21.094Z,99615.50
2023-12-26T22:43:49.628Z,99631.52
2023-12-26T22:46:23.073Z,99634.27
2023-12-26T22:48:53.029Z,99641.14
2023-12-26T22:51:23.081Z,99649.33
2023-12-26T22:53:51.397Z,99636.98
2023-12-26T22:56:19.376Z,99647.68
2023-12-26T22:58:47.592Z,99657.85
2023-12-26T23:01:16.220Z,99668.89
2023-12-26T23:03:45.758Z,99676.51
2023-12-26T23:06:14.023Z,99679.89
2023-12-26T23:08:42.134Z,99677.27
2023-12-26T23:11:18.063Z,99680.34
2023-12-26T23:13:47.751Z,99691.82
2023-12-26T23:16:21.767Z,99697.29
2023-12-26T23:18:50.327Z,99694.17
2023-12-26T23:21:19.500Z,99690.06
2023-12-26T23:23:48.015Z,99682.33
2023-12-26T23:26:23.582Z,99685.91
2023-12-26T23:28:51.526Z,99686.64
2023-12-26T23:31:19.555Z,99695.95
2023-12-26T23:33:47.760Z,99701.30
2023-12-26T23:36:16.283Z,99700.85
2023-12-26T23:38:46.687Z,99706.59
2023-12-26T23:41:15.181Z,99711.77
2023-12-26T23:43:43.332Z,99721.77
2023-12-26T23:46:12.786Z,99723.19
2023-12-26T23:48:42.961Z,99711.52
2023-12-26T23:51:12.272Z,99716.52
2023-12-26T23:53:40.229Z,99712.39
2023-12-26T23:56:08.801Z,99712.91
2023-12-26T23:58:36.808Z,99709.63
